| Date | Time | Temp. (oF) | Dew Point (oF) | Rel. Hum. (%) | Press. (in.) | Wind Dir. | Wind Speed (mph) | Hourly Rainfall (in.) |
|
|---|---|---|---|---|---|---|---|---|---|
| 1 | 04/24 | 00:00 | 62 | 52 | 70 | 30.11 | SSW | 0 | 0.00 |
| 2 | 04/23 | 23:00 | 64 | 52 | 66 | 30.11 | SW | 4 | 0.00 |
| 3 | 04/23 | 22:00 | 66 | 52 | 63 | 30.11 | S | 5 | 0.00 |
| 4 | 04/23 | 21:00 | 68 | 53 | 60 | 30.10 | SSW | 5 | 0.00 |
| 5 | 04/23 | 20:00 | 70 | 49 | 48 | 30.08 | SW | 1 | 0.00 |
| 6 | 04/23 | 19:00 | 75 | 48 | 40 | 30.06 | WSW | 4 | 0.00 |
| 7 | 04/23 | 18:00 | 77 | 49 | 38 | 30.04 | W | 4 | 0.00 |
| 8 | 04/23 | 17:00 | 78 | 52 | 41 | 30.04 | SW | 8 | 0.00 |
| 9 | 04/23 | 16:00 | 76 | 54 | 47 | 30.08 | SW | 2 | 0.00 |
| 10 | 04/23 | 15:00 | 75 | 54 | 50 | 30.12 | WSW | 8 | 0.00 |
| 11 | 04/23 | 14:00 | 75 | 56 | 52 | 30.15 | S | 7 | 0.00 |
| 12 | 04/23 | 13:00 | 73 | 56 | 56 | 30.17 | SSE | 4 | 0.00 |
| 13 | 04/23 | 12:00 | 72 | 57 | 61 | 30.19 | ENE | 2 | 0.00 |
| 14 | 04/23 | 11:00 | 68 | 58 | 73 | 30.21 | S | 0 | 0.00 |
| 15 | 04/23 | 10:00 | 64 | 58 | 83 | 30.22 | WNW | 0 | 0.00 |
| 16 | 04/23 | 09:00 | 60 | 57 | 91 | 30.22 | SSW | 0 | 0.00 |
| 17 | 04/23 | 08:00 | 54 | 53 | 99 | 30.22 | WSW | 1 | 0.00 |
| 18 | 04/23 | 07:00 | 49 | 49 | 100 | 30.22 | W | 0 | 0.00 |
| 19 | 04/23 | 06:00 | 49 | 49 | 100 | 30.19 | E | 0 | 0.00 |
| 20 | 04/23 | 05:00 | 49 | 48 | 98 | 30.18 | E | 0 | 0.00 |
| 21 | 04/23 | 04:00 | 51 | 49 | 96 | 30.17 | ENE | 0 | 0.00 |
| 22 | 04/23 | 03:00 | 53 | 51 | 94 | 30.17 | E | 0 | 0.00 |
| 23 | 04/23 | 02:00 | 53 | 50 | 90 | 30.18 | ESE | 1 | 0.00 |
| 24 | 04/23 | 01:00 | 56 | 51 | 85 | 30.20 | S | 1 | 0.00 |